Time;durP1;ratioP1;P1;durP2;ratioP2;P2;SDS_P1;SDS_P2;PMS_P1;PMS_P2;Temp;Humidity;BMP_temperature;BMP_pressure;BME280_temperature;BME280_humidity;BME280_pressure;Samples;Min_cycle;Max_cycle;Signal;HPM_P1;HPM_P2
2023/09/11 00:03:26;;;;;;;;;;;120.61;114.10;;;;;;2672075;76;20374;-93
2023/09/11 00:06:54;;;;;;;;;;;120.61;114.10;;;;;;2672073;76;20439;-93
2023/09/11 00:10:24;;;;;;;;;;;120.61;114.10;;;;;;2671959;76;20473;-93
2023/09/11 00:13:52;;;;;;;;;;;120.61;114.10;;;;;;2671464;76;20483;-94
2023/09/11 00:17:20;;;;;;;;;;;120.61;114.10;;;;;;2672268;76;20466;-94
2023/09/11 00:20:48;;;;;;;;;;;120.61;114.10;;;;;;2672808;76;20424;-93
2023/09/11 00:24:17;;;;;;;;;;;120.61;114.10;;;;;;2671863;76;20483;-94
2023/09/11 00:27:45;;;;;;;;;;;120.61;114.10;;;;;;2671679;76;20456;-94
2023/09/11 00:31:13;;;;;;;;;;;120.61;114.10;;;;;;2672062;76;20455;-93
2023/09/11 00:34:41;;;;;;;;;;;120.61;114.10;;;;;;2671878;76;20468;-93
2023/09/11 00:38:09;;;;;;;;;;;120.61;114.10;;;;;;2671386;76;20362;-94
2023/09/11 00:41:38;;;;;;;;;;;120.61;114.10;;;;;;2672197;76;20461;-93
2023/09/11 00:45:07;;;;;;;;;;;120.61;114.10;;;;;;2671960;76;20423;-93
2023/09/11 00:48:35;;;;;;;;;;;120.61;114.10;;;;;;2672022;76;20442;-94
2023/09/11 00:52:03;;;;;;;;;;;120.61;114.10;;;;;;2672009;76;21015;-93
2023/09/11 00:55:31;;;;;;;;;;;120.61;114.10;;;;;;2671826;76;20474;-92
2023/09/11 00:58:59;;;;;;;;;;;120.61;114.10;;;;;;2672204;76;20513;-92
2023/09/11 01:02:27;;;;;;;;;;;120.61;114.10;;;;;;2672339;76;20488;-94
2023/09/11 01:05:55;;;;;;;;;;;120.61;114.10;;;;;;2672729;76;20478;-94
2023/09/11 01:09:24;;;;;;;;;;;120.61;114.10;;;;;;2672536;76;20425;-94
2023/09/11 01:12:52;;;;;;;;;;;120.61;114.10;;;;;;2671898;76;20459;-94
2023/09/11 01:16:20;;;;;;;;;;;120.61;114.10;;;;;;2671935;76;20465;-92
2023/09/11 01:19:48;;;;;;;;;;;120.61;114.10;;;;;;2672282;76;20505;-93
2023/09/11 01:23:16;;;;;;;;;;;120.61;114.10;;;;;;2672021;76;20459;-93
2023/09/11 01:26:45;;;;;;;;;;;120.61;114.10;;;;;;2672065;76;20421;-93
2023/09/11 01:30:13;;;;;;;;;;;120.61;114.10;;;;;;2671838;76;20470;-94
2023/09/11 01:33:44;;;;;;;;;;;120.61;114.10;;;;;;2672454;76;20352;-92
2023/09/11 01:37:13;;;;;;;;;;;120.61;114.10;;;;;;2673980;76;20500;-93
2023/09/11 01:40:41;;;;;;;;;;;120.61;114.10;;;;;;2672551;76;20478;-93
2023/09/11 01:44:12;;;;;;;;;;;120.61;114.10;;;;;;2673762;76;20364;-93
2023/09/11 01:47:45;;;;;;;;;;;120.61;114.10;;;;;;2673283;76;20338;-93
2023/09/11 01:51:19;;;;;;;;;;;120.61;114.10;;;;;;2673729;76;20333;-93
2023/09/11 01:54:53;;;;;;;;;;;120.61;114.10;;;;;;2672842;76;20778;-93
2023/09/11 01:58:21;;;;;;;;;;;120.61;114.10;;;;;;2673825;76;20353;-93
2023/09/11 02:01:49;;;;;;;;;;;120.61;114.10;;;;;;2673558;76;20434;-94
2023/09/11 02:05:18;;;;;;;;;;;120.61;114.10;;;;;;2673370;76;20499;-93
2023/09/11 02:08:46;;;;;;;;;;;120.61;114.10;;;;;;2672486;76;21166;-93
2023/09/11 02:12:23;;;;;;;;;;;120.61;114.10;;;;;;2673371;76;20361;-94
2023/09/11 02:15:51;;;;;;;;;;;120.61;114.10;;;;;;2672485;76;20438;-93
2023/09/11 02:19:19;;;;;;;;;;;120.61;114.10;;;;;;2672724;76;20445;-93
2023/09/11 02:22:47;;;;;;;;;;;120.61;114.10;;;;;;2672781;76;20483;-93
2023/09/11 02:26:19;;;;;;;;;;;120.61;114.10;;;;;;2672954;76;20434;-92
2023/09/11 02:29:50;;;;;;;;;;;120.61;114.10;;;;;;2673370;76;20458;-93
2023/09/11 02:33:20;;;;;;;;;;;120.61;114.10;;;;;;2672904;76;20315;-93
2023/09/11 02:36:49;;;;;;;;;;;120.61;114.10;;;;;;2672394;76;20939;-93
2023/09/11 02:40:17;;;;;;;;;;;120.61;114.10;;;;;;2672579;76;20771;-93
2023/09/11 02:43:45;;;;;;;;;;;120.61;114.10;;;;;;2672116;76;20337;-94
2023/09/11 02:47:13;;;;;;;;;;;120.61;114.10;;;;;;2672779;76;20438;-94
2023/09/11 02:50:44;;;;;;;;;;;120.61;114.10;;;;;;2672131;76;20818;-93
2023/09/11 02:54:12;;;;;;;;;;;120.61;114.10;;;;;;2671421;76;20474;-94
2023/09/11 02:57:41;;;;;;;;;;;120.61;114.10;;;;;;2672819;76;20443;-92
2023/09/11 03:01:09;;;;;;;;;;;120.61;114.10;;;;;;2671801;76;20472;-92
2023/09/11 03:04:40;;;;;;;;;;;120.61;114.10;;;;;;2672345;76;20921;-92
2023/09/11 03:08:13;;;;;;;;;;;120.61;114.10;;;;;;2672241;76;20459;-94
2023/09/11 03:11:38;;;;;;;;;;;120.61;114.10;;;;;;2672729;76;20430;-93
2023/09/11 03:15:06;;;;;;;;;;;120.61;114.10;;;;;;2672279;76;20351;-93
2023/09/11 03:18:35;;;;;;;;;;;120.61;114.10;;;;;;2672348;76;20577;-93
2023/09/11 03:22:03;;;;;;;;;;;120.61;114.10;;;;;;2672407;76;20455;-94
2023/09/11 03:25:31;;;;;;;;;;;120.61;114.10;;;;;;2671287;76;20463;-93
2023/09/11 03:28:59;;;;;;;;;;;120.61;114.10;;;;;;2672265;76;20484;-93
2023/09/11 03:32:27;;;;;;;;;;;120.61;114.10;;;;;;2671535;76;20487;-94
2023/09/11 03:35:56;;;;;;;;;;;120.61;114.10;;;;;;2671100;76;20466;-94
2023/09/11 03:39:24;;;;;;;;;;;120.61;114.10;;;;;;2671925;76;20467;-93
2023/09/11 03:42:52;;;;;;;;;;;120.61;114.10;;;;;;2672302;76;20441;-91
2023/09/11 03:46:20;;;;;;;;;;;120.61;114.10;;;;;;2672714;76;20484;-93
2023/09/11 03:49:48;;;;;;;;;;;120.61;114.10;;;;;;2672039;76;20979;-93
2023/09/11 03:53:17;;;;;;;;;;;120.61;114.10;;;;;;2671517;76;20459;-93
2023/09/11 03:56:50;;;;;;;;;;;120.61;114.10;;;;;;2671746;76;20428;-92
2023/09/11 04:00:15;;;;;;;;;;;120.61;114.10;;;;;;2672467;76;20437;-93
2023/09/11 04:03:43;;;;;;;;;;;120.61;114.10;;;;;;2671648;76;20450;-93
2023/09/11 04:07:12;;;;;;;;;;;120.61;114.10;;;;;;2672293;76;20547;-93
2023/09/11 04:10:40;;;;;;;;;;;120.61;114.10;;;;;;2672631;76;20429;-94
2023/09/11 04:14:08;;;;;;;;;;;120.61;114.10;;;;;;2672278;76;20430;-92
2023/09/11 04:17:37;;;;;;;;;;;120.61;114.10;;;;;;2672733;76;20480;-93
2023/09/11 04:21:05;;;;;;;;;;;120.61;114.10;;;;;;2672018;76;20461;-94
2023/09/11 04:24:33;;;;;;;;;;;120.61;114.10;;;;;;2671847;76;20311;-93
2023/09/11 04:28:01;;;;;;;;;;;120.61;114.10;;;;;;2671124;76;20449;-93
2023/09/11 04:31:29;;;;;;;;;;;120.61;114.10;;;;;;2671774;76;20939;-93
2023/09/11 04:35:00;;;;;;;;;;;120.61;114.10;;;;;;2671715;76;20455;-93
2023/09/11 04:38:28;;;;;;;;;;;120.61;114.10;;;;;;2672400;76;20904;-93
2023/09/11 04:41:59;;;;;;;;;;;120.61;114.10;;;;;;2671973;76;20445;-94
2023/09/11 04:45:27;;;;;;;;;;;120.61;114.10;;;;;;2671687;76;20467;-93
2023/09/11 04:48:55;;;;;;;;;;;120.61;114.10;;;;;;2671984;76;20483;-93
2023/09/11 04:52:23;;;;;;;;;;;120.61;114.10;;;;;;2672235;76;20437;-93
2023/09/11 04:55:52;;;;;;;;;;;120.61;114.10;;;;;;2672014;76;20378;-94
2023/09/11 04:59:20;;;;;;;;;;;120.61;114.10;;;;;;2667181;76;20482;-93
2023/09/11 05:02:53;;;;;;;;;;;120.61;114.10;;;;;;2669016;76;20494;-93
2023/09/11 05:06:18;;;;;;;;;;;120.61;114.10;;;;;;2668612;76;20368;-93
2023/09/11 05:09:47;;;;;;;;;;;120.61;114.10;;;;;;2668942;76;20834;-89
2023/09/11 05:13:15;;;;;;;;;;;120.61;114.10;;;;;;2668487;76;21022;-89
2023/09/11 05:16:43;;;;;;;;;;;120.61;114.10;;;;;;2668549;76;20319;-88
2023/09/11 05:20:11;;;;;;;;;;;120.61;114.10;;;;;;2666392;76;20441;-89
2023/09/11 05:23:42;;;;;;;;;;;120.61;114.10;;;;;;2668333;76;20633;-89
2023/09/11 05:27:09;;;;;;;;;;;120.61;114.10;;;;;;2668178;76;20404;-89
2023/09/11 05:30:39;;;;;;;;;;;120.61;114.10;;;;;;2667214;76;20470;-88
2023/09/11 05:34:07;;;;;;;;;;;120.61;114.10;;;;;;2667574;76;20460;-88
2023/09/11 05:37:36;;;;;;;;;;;120.61;114.10;;;;;;2667487;76;20328;-88
2023/09/11 05:41:04;;;;;;;;;;;120.61;114.10;;;;;;2667504;76;20455;-88
2023/09/11 05:44:32;;;;;;;;;;;120.61;114.10;;;;;;2667118;76;20444;-89
2023/09/11 05:48:00;;;;;;;;;;;120.61;114.10;;;;;;2667357;76;20445;-89
2023/09/11 05:51:28;;;;;;;;;;;120.61;114.10;;;;;;2668346;76;20982;-88
2023/09/11 05:54:56;;;;;;;;;;;120.61;114.10;;;;;;2667842;76;20470;-88
2023/09/11 05:58:24;;;;;;;;;;;120.61;114.10;;;;;;2668021;76;20432;-89
2023/09/11 06:01:53;;;;;;;;;;;120.61;114.10;;;;;;2668007;76;20448;-89
2023/09/11 06:05:21;;;;;;;;;;;120.61;114.10;;;;;;2668089;76;20497;-89
2023/09/11 06:08:49;;;;;;;;;;;120.61;114.10;;;;;;2668140;76;20821;-89
2023/09/11 06:12:17;;;;;;;;;;;120.61;114.10;;;;;;2667381;76;20481;-88
2023/09/11 06:15:45;;;;;;;;;;;120.61;114.10;;;;;;2668345;76;20772;-89
2023/09/11 06:19:13;;;;;;;;;;;120.61;114.10;;;;;;2668723;76;20486;-89
2023/09/11 06:22:43;;;;;;;;;;;120.61;114.10;;;;;;2667760;76;20471;-90
2023/09/11 06:26:11;;;;;;;;;;;120.61;114.10;;;;;;2669113;76;21231;-89
2023/09/11 06:29:39;;;;;;;;;;;120.61;114.10;;;;;;2668701;76;20503;-88
2023/09/11 06:33:07;;;;;;;;;;;120.61;114.10;;;;;;2669118;76;21059;-88
2023/09/11 06:36:36;;;;;;;;;;;120.61;114.10;;;;;;2667650;76;20454;-89
2023/09/11 06:40:07;;;;;;;;;;;120.61;114.10;;;;;;2667025;76;20439;-89
2023/09/11 06:43:42;;;;;;;;;;;120.61;114.10;;;;;;2667081;76;20373;-88
2023/09/11 06:47:15;;;;;;;;;;;120.61;114.10;;;;;;2667513;76;20493;-89
2023/09/11 06:50:48;;;;;;;;;;;120.61;114.10;;;;;;2667859;76;20453;-89
2023/09/11 06:54:18;;;;;;;;;;;120.61;114.10;;;;;;2667917;76;20486;-88
2023/09/11 06:57:48;;;;;;;;;;;120.61;114.10;;;;;;2667701;76;20449;-88
2023/09/11 07:01:25;;;;;;;;;;;120.61;114.10;;;;;;2669023;76;20749;-89
2023/09/11 07:04:55;;;;;;;;;;;120.61;114.10;;;;;;2668344;76;20415;-89
2023/09/11 07:08:25;;;;;;;;;;;120.61;114.10;;;;;;2667951;76;20461;-90
2023/09/11 07:12:00;;;;;;;;;;;120.61;114.10;;;;;;2667355;76;20522;-89
2023/09/11 07:15:39;;;;;;;;;;;120.61;114.10;;;;;;2667557;76;20446;-88
2023/09/11 07:19:03;;;;;;;;;;;120.61;114.10;;;;;;2668322;76;20446;-87
2023/09/11 07:26:08;;;;;;;;;;;120.61;114.10;;;;;;2667373;76;20463;-88
2023/09/11 07:29:40;;;;;;;;;;;120.61;114.10;;;;;;2667783;76;20518;-87
2023/09/11 07:33:10;;;;;;;;;;;120.61;114.10;;;;;;2668922;76;20930;-88
2023/09/11 07:36:42;;;;;;;;;;;120.61;114.10;;;;;;2668138;76;20479;-88
2023/09/11 07:40:12;;;;;;;;;;;120.61;114.10;;;;;;2668171;76;20974;-88
2023/09/11 07:43:49;;;;;;;;;;;120.61;114.10;;;;;;2668593;76;20329;-88
2023/09/11 07:47:23;;;;;;;;;;;120.61;114.10;;;;;;2667543;76;20478;-89
2023/09/11 07:50:51;;;;;;;;;;;120.61;114.10;;;;;;2668168;76;20451;-90
2023/09/11 07:54:22;;;;;;;;;;;120.61;114.10;;;;;;2668484;76;20469;-89
2023/09/11 07:57:52;;;;;;;;;;;120.61;114.10;;;;;;2667977;76;20890;-89
2023/09/11 08:01:26;;;;;;;;;;;120.61;114.10;;;;;;2668415;76;20500;-88
2023/09/11 08:04:51;;;;;;;;;;;120.61;114.10;;;;;;2668795;76;20879;-87
2023/09/11 08:08:26;;;;;;;;;;;120.61;114.10;;;;;;2667475;76;20452;-86
2023/09/11 08:11:52;;;;;;;;;;;120.61;114.10;;;;;;2667619;76;20873;-88
2023/09/11 08:15:21;;;;;;;;;;;120.61;114.10;;;;;;2667123;76;20460;-87
2023/09/11 08:19:00;;;;;;;;;;;;;;;;;;;;;
2023/09/11 08:22:27;;;;;;;;;;;120.61;114.10;;;;;;2668055;76;20455;-87
2023/09/11 08:25:58;;;;;;;;;;;120.61;114.10;;;;;;2666682;76;20905;-87
2023/09/11 08:29:26;;;;;;;;;;;120.61;114.10;;;;;;2668495;76;20425;-87
2023/09/11 08:32:54;;;;;;;;;;;120.61;114.10;;;;;;2667514;76;20780;-87
2023/09/11 08:36:25;;;;;;;;;;;120.61;114.10;;;;;;2667268;76;21557;-87
2023/09/11 08:39:53;;;;;;;;;;;120.61;114.10;;;;;;2667739;76;20441;-87
2023/09/11 08:43:27;;;;;;;;;;;120.61;114.10;;;;;;2668213;76;20484;-88
2023/09/11 08:47:00;;;;;;;;;;;120.61;114.10;;;;;;2666411;76;20483;-87
2023/09/11 08:50:30;;;;;;;;;;;120.61;114.10;;;;;;2666946;76;20450;-87
2023/09/11 08:54:09;;;;;;;;;;;120.61;114.10;;;;;;2668247;76;20823;-88
2023/09/11 08:57:35;;;;;;;;;;;120.61;114.10;;;;;;2667313;76;20414;-88
2023/09/11 09:01:05;;;;;;;;;;;120.61;114.10;;;;;;2668123;76;20314;-90
2023/09/11 09:04:34;;;;;;;;;;;120.61;114.10;;;;;;2669292;76;20359;-90
2023/09/11 09:08:06;;;;;;;;;;;120.61;114.10;;;;;;2668312;76;20502;-90
2023/09/11 09:11:35;;;;;;;;;;;120.61;114.10;;;;;;2668898;76;20450;-90
2023/09/11 09:15:03;;;;;;;;;;;120.61;114.10;;;;;;2670903;76;20451;-91
2023/09/11 09:18:31;;;;;;;;;;;120.61;114.10;;;;;;2669249;76;20436;-90
2023/09/11 09:22:01;;;;;;;;;;;120.61;114.10;;;;;;2668500;76;20332;-90
2023/09/11 09:25:29;;;;;;;;;;;120.61;114.10;;;;;;2667777;76;20441;-89
2023/09/11 09:29:00;;;;;;;;;;;120.61;114.10;;;;;;2667321;76;20452;-89
2023/09/11 09:32:28;;;;;;;;;;;120.61;114.10;;;;;;2668411;76;20679;-89
2023/09/11 09:35:57;;;;;;;;;;;120.61;114.10;;;;;;2669223;76;20526;-89
2023/09/11 09:39:28;;;;;;;;;;;120.61;114.10;;;;;;2667833;76;20747;-89
2023/09/11 09:42:59;;;;;;;;;;;120.61;114.10;;;;;;2668502;76;20914;-90
2023/09/11 09:46:27;;;;;;;;;;;120.61;114.10;;;;;;2668208;76;21148;-90
2023/09/11 09:49:55;;;;;;;;;;;120.61;114.10;;;;;;2667666;76;20476;-90
2023/09/11 09:53:23;;;;;;;;;;;120.61;114.10;;;;;;2670494;76;20474;-90
2023/09/11 09:56:52;;;;;;;;;;;120.61;114.10;;;;;;2669504;76;20439;-90
2023/09/11 10:00:20;;;;;;;;;;;120.61;114.10;;;;;;2668286;76;20460;-90
2023/09/11 10:03:48;;;;;;;;;;;120.61;114.10;;;;;;2668881;76;20466;-89
2023/09/11 10:07:16;;;;;;;;;;;120.61;114.10;;;;;;2668847;76;20449;-89
2023/09/11 10:10:44;;;;;;;;;;;120.61;114.10;;;;;;2669916;76;20474;-90
2023/09/11 10:14:12;;;;;;;;;;;120.61;114.10;;;;;;2670832;76;20439;-91
2023/09/11 10:17:43;;;;;;;;;;;120.61;114.10;;;;;;2669071;76;20439;-91
2023/09/11 10:21:12;;;;;;;;;;;120.61;114.10;;;;;;2669841;76;20500;-91
2023/09/11 10:24:40;;;;;;;;;;;120.61;114.10;;;;;;2670447;76;20457;-91
2023/09/11 10:28:08;;;;;;;;;;;120.61;114.10;;;;;;2669467;76;20473;-88
2023/09/11 10:31:37;;;;;;;;;;;120.61;114.10;;;;;;2670376;76;20416;-90
2023/09/11 10:35:05;;;;;;;;;;;120.61;114.10;;;;;;2670116;76;20433;-90
2023/09/11 10:38:33;;;;;;;;;;;120.61;114.10;;;;;;2669929;76;20465;-90
2023/09/11 10:42:01;;;;;;;;;;;120.61;114.10;;;;;;2670015;76;20446;-91
2023/09/11 10:45:29;;;;;;;;;;;120.61;114.10;;;;;;2670006;76;20798;-90
2023/09/11 10:48:57;;;;;;;;;;;120.61;114.10;;;;;;2669246;76;20426;-90
2023/09/11 10:52:25;;;;;;;;;;;120.61;114.10;;;;;;2669577;76;20469;-90
2023/09/11 10:55:54;;;;;;;;;;;120.61;114.10;;;;;;2669880;76;20464;-90
2023/09/11 10:59:22;;;;;;;;;;;120.61;114.10;;;;;;2670034;76;20455;-90
2023/09/11 11:02:50;;;;;;;;;;;120.61;114.10;;;;;;2670215;76;20430;-90
2023/09/11 11:06:18;;;;;;;;;;;120.61;114.10;;;;;;2668870;76;21283;-90
2023/09/11 11:09:47;;;;;;;;;;;120.61;114.10;;;;;;2670619;76;20456;-90
2023/09/11 11:13:16;;;;;;;;;;;120.61;114.10;;;;;;2670314;76;20318;-90
2023/09/11 11:16:44;;;;;;;;;;;120.61;114.10;;;;;;2670025;76;20486;-90
2023/09/11 11:20:12;;;;;;;;;;;120.61;114.10;;;;;;2669788;76;20439;-91
2023/09/11 11:23:40;;;;;;;;;;;120.61;114.10;;;;;;2669790;76;20496;-91
2023/09/11 11:27:08;;;;;;;;;;;120.61;114.10;;;;;;2669726;76;20360;-90
2023/09/11 11:30:36;;;;;;;;;;;120.61;114.10;;;;;;2670018;76;20329;-90
2023/09/11 11:34:10;;;;;;;;;;;120.61;114.10;;;;;;2669976;76;20446;-90
2023/09/11 11:37:36;;;;;;;;;;;120.61;114.10;;;;;;2669553;76;20458;-90
2023/09/11 11:41:04;;;;;;;;;;;120.61;114.10;;;;;;2670067;76;20458;-91
2023/09/11 11:44:35;;;;;;;;;;;120.61;114.10;;;;;;2670099;76;20791;-90
2023/09/11 11:48:04;;;;;;;;;;;120.61;114.10;;;;;;2670482;76;20522;-90
2023/09/11 11:51:32;;;;;;;;;;;120.61;114.10;;;;;;2672121;76;20556;-91
2023/09/11 11:55:00;;;;;;;;;;;120.61;114.10;;;;;;2672714;76;20420;-90
2023/09/11 11:58:28;;;;;;;;;;;120.61;114.10;;;;;;2672578;76;20684;-91
2023/09/11 12:01:56;;;;;;;;;;;120.61;114.10;;;;;;2672435;76;20420;-90
2023/09/11 12:05:24;;;;;;;;;;;120.61;114.10;;;;;;2672175;76;20496;-90
2023/09/11 12:08:52;;;;;;;;;;;120.61;114.10;;;;;;2671308;76;20982;-90
2023/09/11 12:12:21;;;;;;;;;;;120.61;114.10;;;;;;2672093;76;20455;-90
2023/09/11 12:15:49;;;;;;;;;;;120.61;114.10;;;;;;2672021;76;20447;-90
2023/09/11 12:19:17;;;;;;;;;;;120.61;114.10;;;;;;2672697;76;20475;-90
2023/09/11 12:22:46;;;;;;;;;;;120.61;114.10;;;;;;2672032;76;20454;-90
2023/09/11 12:26:14;;;;;;;;;;;120.61;114.10;;;;;;2672916;76;20429;-90
2023/09/11 12:29:43;;;;;;;;;;;120.61;114.10;;;;;;2672256;76;20481;-91
2023/09/11 12:33:11;;;;;;;;;;;120.61;114.10;;;;;;2672567;76;20431;-91
2023/09/11 12:36:39;;;;;;;;;;;120.61;114.10;;;;;;2672099;76;20364;-90
2023/09/11 12:40:09;;;;;;;;;;;120.61;114.10;;;;;;2672407;76;20416;-90
2023/09/11 12:43:37;;;;;;;;;;;120.61;114.10;;;;;;2671937;76;20498;-90
2023/09/11 12:47:10;;;;;;;;;;;120.61;114.10;;;;;;2671069;76;20744;-89
2023/09/11 12:50:35;;;;;;;;;;;120.61;114.10;;;;;;2671490;76;20645;-90
2023/09/11 12:54:03;;;;;;;;;;;120.61;114.10;;;;;;2670278;76;20435;-90
2023/09/11 12:57:31;;;;;;;;;;;120.61;114.10;;;;;;2670249;76;20419;-89
2023/09/11 13:01:00;;;;;;;;;;;120.61;114.10;;;;;;2669913;76;20449;-89
2023/09/11 13:04:28;;;;;;;;;;;120.61;114.10;;;;;;2668884;76;20437;-90
2023/09/11 13:07:56;;;;;;;;;;;120.61;114.10;;;;;;2670639;76;20439;-89
2023/09/11 13:11:24;;;;;;;;;;;120.61;114.10;;;;;;2671639;76;20447;-90
2023/09/11 13:14:52;;;;;;;;;;;120.61;114.10;;;;;;2670675;76;20404;-88
2023/09/11 13:18:20;;;;;;;;;;;120.61;114.10;;;;;;2672666;76;20447;-90
2023/09/11 13:21:51;;;;;;;;;;;120.61;114.10;;;;;;2670288;76;20483;-91
2023/09/11 13:25:44;;;;;;;;;;;;;;;;;;;;;
2023/09/11 13:29:17;;;;;;;;;;;;;;;;;;;;;
2023/09/11 13:32:40;;;;;;;;;;;120.61;114.10;;;;;;2671863;76;20417;-93
2023/09/11 13:40:24;;;;;;;;;;;120.61;114.10;;;;;;2669932;76;20490;-90
2023/09/11 13:47:37;;;;;;;;;;;;;;;;;;;;;
2023/09/11 13:51:00;;;;;;;;;;;120.61;114.10;;;;;;2672125;76;20756;-92
2023/09/11 13:54:47;;;;;;;;;;;;;;;;;;;;;
2023/09/11 13:58:33;;;;;;;;;;;120.61;114.10;;;;;;2671791;76;20304;-94
2023/09/11 14:02:08;;;;;;;;;;;120.61;114.10;;;;;;2671978;76;20459;-93
2023/09/11 14:05:48;;;;;;;;;;;120.61;114.10;;;;;;2671236;76;20435;-93
2023/09/11 14:09:45;;;;;;;;;;;;;;;;;;;;;
2023/09/11 14:16:56;;;;;;;;;;;;;;;;;;;;;
2023/09/11 14:23:55;;;;;;;;;;;120.61;114.10;;;;;;2670045;76;20475;-92
2023/09/11 14:27:33;;;;;;;;;;;120.61;114.10;;;;;;2670183;76;20347;-93
2023/09/11 14:31:17;;;;;;;;;;;;;;;;;;;;;
2023/09/11 14:34:46;;;;;;;;;;;120.61;114.10;;;;;;2671443;76;20448;-91
2023/09/11 14:38:29;;;;;;;;;;;;;;;;;;;;;
2023/09/11 14:41:47;;;;;;;;;;;120.61;114.10;;;;;;2671845;76;20322;-91
2023/09/11 14:45:16;;;;;;;;;;;120.61;114.10;;;;;;2670339;76;20471;-91
2023/09/11 14:48:55;;;;;;;;;;;120.61;114.10;;;;;;2670621;76;20496;-91
2023/09/11 14:52:29;;;;;;;;;;;120.61;114.10;;;;;;2670424;76;20440;-92
2023/09/11 14:56:19;;;;;;;;;;;;;;;;;;;;;
2023/09/11 14:59:44;;;;;;;;;;;120.61;114.10;;;;;;2669418;76;20467;-89
2023/09/11 15:03:11;;;;;;;;;;;120.61;114.10;;;;;;2667484;76;20450;-90
2023/09/11 15:06:41;;;;;;;;;;;120.61;114.10;;;;;;2668991;76;20436;-89
2023/09/11 15:10:21;;;;;;;;;;;120.61;114.10;;;;;;2667718;76;20466;-90
2023/09/11 15:14:01;;;;;;;;;;;120.61;114.10;;;;;;2667599;76;20997;-90
2023/09/11 15:17:28;;;;;;;;;;;120.61;114.10;;;;;;2667044;76;20469;-90
2023/09/11 15:21:17;;;;;;;;;;;;;;;;;;;;;
2023/09/11 15:28:28;;;;;;;;;;;120.61;114.10;;;;;;2663645;76;20546;-90
2023/09/11 15:32:06;;;;;;;;;;;;;;;;;;;;;
2023/09/11 15:35:29;;;;;;;;;;;120.61;114.10;;;;;;2665803;76;20497;-90
2023/09/11 15:39:05;;;;;;;;;;;120.61;114.10;;;;;;2665756;76;20464;-88
2023/09/11 15:42:51;;;;;;;;;;;120.61;114.10;;;;;;2667893;76;20469;-89
2023/09/11 15:46:10;;;;;;;;;;;120.61;114.10;;;;;;2666934;76;20450;-89
2023/09/11 15:49:59;;;;;;;;;;;120.61;114.10;;;;;;2667203;76;20967;-89
2023/09/11 15:53:27;;;;;;;;;;;;;;;;;;;;;
2023/09/11 15:56:53;;;;;;;;;;;120.61;114.10;;;;;;2664228;76;20485;-88
2023/09/11 16:00:39;;;;;;;;;;;120.61;114.10;;;;;;2666539;76;20448;-89
2023/09/11 16:04:16;;;;;;;;;;;120.61;114.10;;;;;;2665448;76;21222;-88
2023/09/11 16:07:47;;;;;;;;;;;120.61;114.10;;;;;;2667128;76;20487;-88
2023/09/11 16:11:21;;;;;;;;;;;120.61;114.10;;;;;;2666053;76;20493;-89
2023/09/11 16:18:31;;;;;;;;;;;120.61;114.10;;;;;;2665786;76;20452;-88
2023/09/11 16:22:04;;;;;;;;;;;120.61;114.10;;;;;;2665254;76;20451;-89
2023/09/11 16:25:42;;;;;;;;;;;120.61;114.10;;;;;;2667699;76;20397;-89
2023/09/11 16:29:11;;;;;;;;;;;120.61;114.10;;;;;;2667543;76;20462;-89
2023/09/11 16:32:50;;;;;;;;;;;;;;;;;;;;;
2023/09/11 16:36:22;;;;;;;;;;;120.61;114.10;;;;;;2666319;76;20480;-89
2023/09/11 16:39:56;;;;;;;;;;;120.61;114.10;;;;;;2668821;76;21005;-89
2023/09/11 16:43:27;;;;;;;;;;;120.61;114.10;;;;;;2667883;76;20503;-88
2023/09/11 16:46:54;;;;;;;;;;;120.61;114.10;;;;;;2666918;76;20441;-88
2023/09/11 16:50:28;;;;;;;;;;;120.61;114.10;;;;;;2666821;76;20762;-89
2023/09/11 16:54:11;;;;;;;;;;;120.61;114.10;;;;;;2666012;76;20470;-88
2023/09/11 16:57:42;;;;;;;;;;;120.61;114.10;;;;;;2665376;76;20463;-89
2023/09/11 17:01:12;;;;;;;;;;;120.61;114.10;;;;;;2666910;76;20435;-87
2023/09/11 17:04:58;;;;;;;;;;;120.61;114.10;;;;;;2665215;76;20477;-89
2023/09/11 17:08:21;;;;;;;;;;;120.61;114.10;;;;;;2666888;76;20944;-88
2023/09/11 17:11:49;;;;;;;;;;;120.61;114.10;;;;;;2665552;76;20417;-88
2023/09/11 17:15:19;;;;;;;;;;;120.61;114.10;;;;;;2665652;76;20435;-89
2023/09/11 17:18:50;;;;;;;;;;;120.61;114.10;;;;;;2667094;76;20477;-87
2023/09/11 17:22:22;;;;;;;;;;;120.61;114.10;;;;;;2667487;76;20562;-90
2023/09/11 17:25:51;;;;;;;;;;;120.61;114.10;;;;;;2668931;76;20660;-88
2023/09/11 17:29:19;;;;;;;;;;;120.61;114.10;;;;;;2667454;76;20434;-88
2023/09/11 17:32:50;;;;;;;;;;;120.61;114.10;;;;;;2667703;76;20439;-88
2023/09/11 17:36:18;;;;;;;;;;;120.61;114.10;;;;;;2667567;76;20418;-88
2023/09/11 17:39:48;;;;;;;;;;;120.61;114.10;;;;;;2667687;76;20424;-87
2023/09/11 17:43:16;;;;;;;;;;;120.61;114.10;;;;;;2668192;76;20430;-87
2023/09/11 17:46:45;;;;;;;;;;;120.61;114.10;;;;;;2669172;76;20472;-89
2023/09/11 17:50:13;;;;;;;;;;;120.61;114.10;;;;;;2669302;76;20535;-88
2023/09/11 17:53:41;;;;;;;;;;;120.61;114.10;;;;;;2669055;76;20446;-88
2023/09/11 17:57:10;;;;;;;;;;;120.61;114.10;;;;;;2667568;76;20475;-89
2023/09/11 18:00:38;;;;;;;;;;;120.61;114.10;;;;;;2668517;76;20437;-88
2023/09/11 18:04:08;;;;;;;;;;;120.61;114.10;;;;;;2670247;76;20893;-88
2023/09/11 18:07:37;;;;;;;;;;;120.61;114.10;;;;;;2669704;76;20427;-88
2023/09/11 18:11:05;;;;;;;;;;;120.61;114.10;;;;;;2669022;76;20522;-89
2023/09/11 18:14:33;;;;;;;;;;;120.61;114.10;;;;;;2668849;76;20466;-89
2023/09/11 18:18:03;;;;;;;;;;;120.61;114.10;;;;;;2668835;76;20668;-88
2023/09/11 18:21:32;;;;;;;;;;;120.61;114.10;;;;;;2669161;76;20454;-91
2023/09/11 18:25:00;;;;;;;;;;;120.61;114.10;;;;;;2668465;76;20513;-91
2023/09/11 18:28:30;;;;;;;;;;;120.61;114.10;;;;;;2666687;76;20354;-91
2023/09/11 18:31:58;;;;;;;;;;;120.61;114.10;;;;;;2667810;76;20742;-89
2023/09/11 18:35:26;;;;;;;;;;;120.61;114.10;;;;;;2667403;76;20473;-90
2023/09/11 18:38:55;;;;;;;;;;;120.61;114.10;;;;;;2667386;76;20437;-89
2023/09/11 18:42:23;;;;;;;;;;;120.61;114.10;;;;;;2668279;76;20444;-89
2023/09/11 18:45:51;;;;;;;;;;;120.61;114.10;;;;;;2667586;76;20428;-89
2023/09/11 18:49:21;;;;;;;;;;;120.61;114.10;;;;;;2669710;76;20430;-88
2023/09/11 18:52:49;;;;;;;;;;;120.61;114.10;;;;;;2670069;76;20454;-90
2023/09/11 18:56:17;;;;;;;;;;;120.61;114.10;;;;;;2669821;76;20458;-90
2023/09/11 18:59:45;;;;;;;;;;;120.61;114.10;;;;;;2668222;76;20435;-90
2023/09/11 19:03:13;;;;;;;;;;;120.61;114.10;;;;;;2668976;76;20488;-90
2023/09/11 19:06:41;;;;;;;;;;;120.61;114.10;;;;;;2668216;76;20331;-90
2023/09/11 19:10:11;;;;;;;;;;;120.61;114.10;;;;;;2668300;76;20601;-90
2023/09/11 19:13:39;;;;;;;;;;;120.61;114.10;;;;;;2667819;76;20430;-90
2023/09/11 19:17:09;;;;;;;;;;;120.61;114.10;;;;;;2668216;76;20474;-91
2023/09/11 19:20:37;;;;;;;;;;;120.61;114.10;;;;;;2667395;76;20422;-90
2023/09/11 19:24:07;;;;;;;;;;;120.61;114.10;;;;;;2668523;76;20444;-91
2023/09/11 19:27:36;;;;;;;;;;;120.61;114.10;;;;;;2668568;76;21537;-90
2023/09/11 19:31:07;;;;;;;;;;;120.61;114.10;;;;;;2668761;76;20475;-91
2023/09/11 19:34:40;;;;;;;;;;;120.61;114.10;;;;;;2669535;76;20317;-90
2023/09/11 19:38:06;;;;;;;;;;;120.61;114.10;;;;;;2669662;76;20795;-90
2023/09/11 19:41:34;;;;;;;;;;;120.61;114.10;;;;;;2670003;76;20456;-91
2023/09/11 19:45:03;;;;;;;;;;;120.61;114.10;;;;;;2670338;76;20471;-91
2023/09/11 19:48:31;;;;;;;;;;;120.61;114.10;;;;;;2670309;76;20465;-91
2023/09/11 19:51:59;;;;;;;;;;;120.61;114.10;;;;;;2669426;76;20425;-91
2023/09/11 19:55:27;;;;;;;;;;;120.61;114.10;;;;;;2669320;76;20437;-92
2023/09/11 19:58:55;;;;;;;;;;;120.61;114.10;;;;;;2671080;76;20931;-91
2023/09/11 20:02:25;;;;;;;;;;;120.61;114.10;;;;;;2670225;76;20407;-91
2023/09/11 20:05:53;;;;;;;;;;;120.61;114.10;;;;;;2670257;76;20439;-91
2023/09/11 20:09:21;;;;;;;;;;;120.61;114.10;;;;;;2671001;76;20465;-90
2023/09/11 20:12:49;;;;;;;;;;;120.61;114.10;;;;;;2670288;76;20446;-90
2023/09/11 20:16:18;;;;;;;;;;;120.61;114.10;;;;;;2671327;76;20461;-91
2023/09/11 20:19:46;;;;;;;;;;;120.61;114.10;;;;;;2670797;76;20484;-90
2023/09/11 20:23:14;;;;;;;;;;;120.61;114.10;;;;;;2672224;76;20419;-91
2023/09/11 20:26:42;;;;;;;;;;;120.61;114.10;;;;;;2672375;76;20436;-91
2023/09/11 20:30:10;;;;;;;;;;;120.61;114.10;;;;;;2671293;76;20466;-90
2023/09/11 20:33:39;;;;;;;;;;;120.61;114.10;;;;;;2672552;76;22563;-90